Time;durP1;ratioP1;P1;durP2;ratioP2;P2;SDS_P1;SDS_P2;PMS_P1;PMS_P2;Temp;Humidity;BMP_temperature;BMP_pressure;BME280_temperature;BME280_humidity;BME280_pressure;Samples;Min_cycle;Max_cycle;Signal;HPM_P1;HPM_P2
2022/09/05 00:02:36;;;;;;;0.25;0.10;;;28.80;41.50;;;;;;5058389;28;20048;-64
2022/09/05 00:05:23;;;;;;;1.85;0.10;;;28.80;41.50;;;;;;5059135;28;20045;-64
2022/09/05 00:08:00;;;;;;;1.38;0.10;;;28.70;41.60;;;;;;5058169;28;20033;-63
2022/09/05 00:10:35;;;;;;;0.80;0.10;;;28.70;41.70;;;;;;5073669;28;20109;-65
2022/09/05 00:13:03;;;;;;;;;;;28.70;41.80;;;;;;5073900;28;20526;-65
2022/09/05 00:15:38;;;;;;;0.13;0.10;;;28.70;41.70;;;;;;5073088;28;19924;-64
2022/09/05 00:18:28;;;;;;;0.28;0.10;;;28.60;41.90;;;;;;5068296;28;20076;-64
2022/09/05 00:21:04;;;;;;;1.05;0.10;;;28.60;41.90;;;;;;5062983;28;20040;-63
2022/09/05 00:23:40;;;;;;;0.65;0.10;;;28.60;42.20;;;;;;5069832;28;20106;-66
2022/09/05 00:26:23;;;;;;;0.00;0.00;;;28.50;42.20;;;;;;5064699;28;20048;-65
2022/09/05 00:28:57;;;;;;;0.73;0.00;;;28.50;42.30;;;;;;5054523;28;20091;-63
2022/09/05 00:31:37;;;;;;;1.10;0.10;;;28.50;42.50;;;;;;5070105;28;20049;-61
2022/09/05 00:34:18;;;;;;;0.55;0.10;;;28.50;42.50;;;;;;5069630;28;20048;-65
2022/09/05 00:36:49;;;;;;;0.40;0.10;;;28.50;42.60;;;;;;5058520;28;20103;-65
2022/09/05 00:39:19;;;;;;;0.10;0.00;;;28.40;42.60;;;;;;5069638;28;20479;-62
2022/09/05 00:41:49;;;;;;;1.95;0.10;;;28.40;42.60;;;;;;5067553;28;20040;-64
2022/09/05 00:44:19;;;;;;;0.20;0.10;;;28.40;42.70;;;;;;5049763;28;20059;-64
2022/09/05 00:46:58;;;;;;;1.20;0.10;;;28.40;42.70;;;;;;5060763;28;20072;-64
2022/09/05 00:49:32;;;;;;;0.90;0.10;;;28.40;42.60;;;;;;5065501;28;20409;-64
2022/09/05 00:52:07;;;;;;;0.10;0.10;;;28.40;42.60;;;;;;5052430;28;20045;-65
2022/09/05 00:54:53;;;;;;;1.52;0.00;;;28.40;42.60;;;;;;5049489;28;20131;-65
2022/09/05 00:57:42;;;;;;;0.32;0.10;;;28.30;42.60;;;;;;5035442;28;20127;-65
2022/09/05 01:00:16;;;;;;;0.47;0.10;;;28.30;42.60;;;;;;5069089;28;20064;-66
2022/09/05 01:03:40;;;;;;;2.20;0.35;;;28.30;42.80;;;;;;5050460;28;20041;-66
2022/09/05 01:06:17;;;;;;;6.82;0.17;;;28.30;42.90;;;;;;4920926;29;20148;-65
2022/09/05 01:09:24;;;;;;;0.90;0.10;;;28.30;43.10;;;;;;4910990;29;20052;-65
2022/09/05 01:12:14;;;;;;;0.10;0.10;;;28.30;43.20;;;;;;4912602;29;20056;-66
2022/09/05 01:15:00;;;;;;;0.10;0.10;;;28.30;43.30;;;;;;4913630;29;20143;-65
2022/09/05 01:17:37;;;;;;;0.05;0.05;;;28.30;43.50;;;;;;4928674;29;20114;-67
2022/09/05 01:20:17;;;;;;;1.15;0.10;;;28.20;43.40;;;;;;4916767;29;20095;-66
2022/09/05 01:23:20;;;;;;;0.10;0.00;;;28.20;43.40;;;;;;4920024;29;20469;-66
2022/09/05 01:26:08;;;;;;;3.45;0.30;;;28.20;43.50;;;;;;4917103;29;20115;-65
2022/09/05 01:28:41;;;;;;;0.95;0.10;;;28.20;44.50;;;;;;4911222;29;20048;-62
2022/09/05 01:31:17;;;;;;;1.50;0.35;;;28.20;44.80;;;;;;4926193;29;20569;-63
2022/09/05 01:33:52;;;;;;;2.22;0.43;;;28.30;44.90;;;;;;4911731;29;20052;-63
2022/09/05 01:36:34;;;;;;;1.05;0.05;;;28.40;44.90;;;;;;4919827;29;20581;-63
2022/09/05 01:39:04;;;;;;;0.45;0.10;;;28.50;45.00;;;;;;4918033;28;20685;-63
2022/09/05 01:41:39;;;;;;;1.08;0.10;;;28.60;45.10;;;;;;4992666;28;20045;-63
2022/09/05 01:44:27;;;;;;;0.32;0.28;;;28.70;45.20;;;;;;5051160;28;20132;-63
2022/09/05 01:47:08;;;;;;;2.67;0.20;;;28.70;45.10;;;;;;5062485;28;20110;-63
2022/09/05 01:49:51;;;;;;;1.10;0.10;;;28.80;45.20;;;;;;5068221;28;20117;-63
2022/09/05 01:52:25;;;;;;;2.17;0.20;;;28.90;45.30;;;;;;5061959;28;20512;-63
2022/09/05 01:55:16;;;;;;;0.90;0.10;;;28.90;45.30;;;;;;5068538;28;20072;-64
2022/09/05 01:57:47;;;;;;;0.90;0.10;;;29.00;45.30;;;;;;5058941;28;20098;-64
2022/09/05 02:00:21;;;;;;;1.50;0.10;;;29.00;45.40;;;;;;5067970;28;20037;-63
2022/09/05 02:03:01;;;;;;;0.65;0.15;;;29.00;45.40;;;;;;5048584;28;20517;-65
2022/09/05 02:06:06;;;;;;;0.28;0.10;;;29.10;45.40;;;;;;5045983;28;20052;-64
2022/09/05 02:08:51;;;;;;;2.53;0.28;;;29.10;45.40;;;;;;5063472;28;20036;-64
2022/09/05 02:11:18;;;;;;;0.63;0.38;;;29.10;45.50;;;;;;5067935;28;20044;-64
2022/09/05 02:13:59;;;;;;;0.35;0.10;;;29.10;45.60;;;;;;5050672;28;20136;-63
2022/09/05 02:16:34;;;;;;;1.90;0.10;;;29.20;45.70;;;;;;5048037;28;20425;-64
2022/09/05 02:19:07;;;;;;;;;;;29.20;45.70;;;;;;5048942;28;20618;-63
2022/09/05 02:21:41;;;;;;;1.10;0.20;;;29.20;45.50;;;;;;5064838;28;19924;-62
2022/09/05 02:24:15;;;;;;;0.35;0.10;;;29.20;45.80;;;;;;5046254;28;20044;-63
2022/09/05 02:26:56;;;;;;;3.03;0.20;;;29.20;45.80;;;;;;5056989;28;20043;-63
2022/09/05 02:29:30;;;;;;;1.15;0.10;;;29.20;45.80;;;;;;5045151;28;20061;-62
2022/09/05 02:32:11;;;;;;;0.43;0.10;;;29.30;45.90;;;;;;5056935;28;20036;-62
2022/09/05 02:34:43;;;;;;;0.10;0.10;;;29.30;45.90;;;;;;5035023;28;20040;-62
2022/09/05 02:37:19;;;;;;;0.20;0.10;;;29.30;45.90;;;;;;5057143;28;20048;-63
2022/09/05 02:39:51;;;;;;;1.85;0.10;;;29.30;45.90;;;;;;5054815;28;20045;-63
2022/09/05 02:42:26;;;;;;;1.40;0.10;;;29.30;45.90;;;;;;5051436;28;20558;-64
2022/09/05 02:45:06;;;;;;;0.20;0.10;;;29.30;45.90;;;;;;5068097;28;20121;-65
2022/09/05 02:47:41;;;;;;;0.52;0.10;;;29.30;45.90;;;;;;5067889;28;20045;-65
2022/09/05 02:50:27;;;;;;;0.10;0.08;;;29.40;46.00;;;;;;5067345;28;20520;-65
2022/09/05 02:52:57;;;;;;;0.22;0.10;;;29.40;46.00;;;;;;5050012;28;20045;-65
2022/09/05 02:55:37;;;;;;;1.20;0.05;;;29.30;45.90;;;;;;5047837;28;20623;-65
2022/09/05 02:58:29;;;;;;;1.65;0.20;;;29.30;45.90;;;;;;5059686;28;20037;-65
2022/09/05 03:01:08;;;;;;;0.38;0.10;;;29.30;45.90;;;;;;5059950;28;20037;-65
2022/09/05 03:03:43;;;;;;;1.77;0.35;;;29.40;46.00;;;;;;5061838;28;20744;-65
2022/09/05 03:06:21;;;;;;;0.68;0.10;;;29.40;46.00;;;;;;5065408;28;20131;-63
2022/09/05 03:09:12;;;;;;;2.20;0.20;;;29.40;46.00;;;;;;5050873;28;20083;-63
2022/09/05 03:12:25;;;;;;;0.20;0.10;;;29.40;46.00;;;;;;5047367;28;20056;-63
2022/09/05 03:15:35;;;;;;;0.10;0.10;;;29.30;46.00;;;;;;5047057;28;20778;-63
2022/09/05 03:18:36;;;;;;;0.75;0.10;;;29.40;46.10;;;;;;5058963;28;20045;-64
2022/09/05 03:21:40;;;;;;;0.30;0.10;;;29.40;46.20;;;;;;5059113;28;20776;-63
2022/09/05 03:24:51;;;;;;;0.32;0.00;;;29.30;46.10;;;;;;5004876;28;20057;-63
2022/09/05 03:28:05;;;;;;;0.82;0.10;;;29.40;46.20;;;;;;5001304;28;20493;-62
2022/09/05 03:30:49;;;;;;;1.42;0.10;;;29.30;46.20;;;;;;4987310;28;20710;-64
2022/09/05 03:33:39;;;;;;;0.68;0.08;;;29.30;46.30;;;;;;4990425;28;20527;-63
2022/09/05 03:36:42;;;;;;;0.22;0.22;;;29.40;46.40;;;;;;4996774;28;20132;-64
2022/09/05 03:40:02;;;;;;;0.30;0.10;;;29.30;46.30;;;;;;5004404;28;20113;-63
2022/09/05 03:42:47;;;;;;;1.42;0.10;;;29.30;46.30;;;;;;5003778;28;20081;-64
2022/09/05 03:45:56;;;;;;;0.10;0.10;;;29.30;46.30;;;;;;4987653;28;20054;-63
2022/09/05 03:48:52;;;;;;;1.45;0.10;;;29.30;46.20;;;;;;4966226;28;20325;-63
2022/09/05 03:51:31;;;;;;;4.70;0.15;;;29.30;46.20;;;;;;4998741;28;20444;-63
2022/09/05 03:54:24;;;;;;;0.15;0.10;;;29.30;46.50;;;;;;5002533;28;20133;-63
2022/09/05 03:57:18;;;;;;;0.20;0.10;;;29.30;46.30;;;;;;5003256;28;20522;-63
2022/09/05 04:00:06;;;;;;;5.47;0.30;;;29.30;46.30;;;;;;5009216;28;20465;-63
2022/09/05 04:02:38;;;;;;;0.75;0.32;;;29.30;46.20;;;;;;5062335;28;20147;-63
2022/09/05 04:05:10;;;;;;;0.40;0.10;;;29.20;46.30;;;;;;5070669;28;20143;-63
2022/09/05 04:07:42;;;;;;;0.30;0.10;;;29.20;46.30;;;;;;5040054;28;20509;-63
2022/09/05 04:10:22;;;;;;;0.45;0.10;;;29.20;46.30;;;;;;5066111;28;20460;-63
2022/09/05 04:12:56;;;;;;;0.30;0.10;;;29.20;46.40;;;;;;5066375;28;20265;-63
2022/09/05 04:15:31;;;;;;;0.10;0.10;;;29.10;46.40;;;;;;5070018;28;20045;-63
2022/09/05 04:18:02;;;;;;;0.20;0.10;;;29.10;46.40;;;;;;5066446;28;20033;-63
2022/09/05 04:20:38;;;;;;;0.93;0.10;;;29.10;46.40;;;;;;5062062;28;20135;-64
2022/09/05 04:23:15;;;;;;;0.10;0.10;;;29.10;46.50;;;;;;5050225;28;20095;-63
2022/09/05 04:25:54;;;;;;;2.53;0.20;;;29.10;46.70;;;;;;5031907;28;20137;-62
2022/09/05 04:28:38;;;;;;;0.50;0.10;;;29.00;46.50;;;;;;5059659;28;20036;-63
2022/09/05 04:31:12;;;;;;;1.35;0.10;;;29.00;46.50;;;;;;5070307;28;20548;-63
2022/09/05 04:33:47;;;;;;;0.10;0.10;;;29.00;46.70;;;;;;5070329;28;20040;-63
2022/09/05 04:36:19;;;;;;;3.20;0.08;;;28.90;46.70;;;;;;5061397;28;20577;-62
2022/09/05 04:39:05;;;;;;;0.28;0.10;;;28.90;46.80;;;;;;5049978;28;20049;-62
2022/09/05 04:41:35;;;;;;;0.82;0.10;;;28.90;46.90;;;;;;5069071;28;20083;-62
2022/09/05 04:44:09;;;;;;;0.40;0.20;;;28.80;47.00;;;;;;5068601;28;20047;-63
2022/09/05 04:46:41;;;;;;;0.68;0.10;;;28.80;47.10;;;;;;5069777;28;20045;-62
2022/09/05 04:49:14;;;;;;;0.45;0.20;;;28.80;47.20;;;;;;5067598;28;20041;-63
2022/09/05 04:52:12;;;;;;;1.55;0.10;;;28.70;47.20;;;;;;5064231;28;20068;-63
2022/09/05 04:54:45;;;;;;;0.47;0.10;;;28.70;47.20;;;;;;5069131;28;20044;-62
2022/09/05 04:57:21;;;;;;;1.65;0.98;;;28.70;47.30;;;;;;5057160;28;20069;-62
2022/09/05 04:59:57;;;;;;;0.22;0.22;;;28.70;47.40;;;;;;5056846;28;20094;-62
2022/09/05 05:02:27;;;;;;;;;;;28.70;47.40;;;;;;5052400;28;20061;-63
2022/09/05 05:05:01;;;;;;;0.63;0.10;;;28.60;47.30;;;;;;5063718;28;19978;-63
2022/09/05 05:07:44;;;;;;;0.32;0.17;;;28.60;47.50;;;;;;5054471;28;20052;-63
2022/09/05 05:10:19;;;;;;;0.17;0.10;;;28.60;47.60;;;;;;5056115;28;20494;-63
2022/09/05 05:12:59;;;;;;;0.40;0.10;;;28.60;47.60;;;;;;5042425;28;20136;-63
2022/09/05 05:15:30;;;;;;;0.90;0.20;;;28.60;47.50;;;;;;5061729;28;20700;-62
2022/09/05 05:18:06;;;;;;;2.22;0.55;;;28.50;47.50;;;;;;5063807;28;20072;-63
2022/09/05 05:20:38;;;;;;;0.10;0.10;;;28.50;47.60;;;;;;5055104;28;20149;-63
2022/09/05 05:23:09;;;;;;;1.13;0.32;;;28.50;47.70;;;;;;5069006;28;20082;-62
2022/09/05 05:25:46;;;;;;;2.05;0.75;;;28.40;47.70;;;;;;5068453;28;20517;-62
2022/09/05 05:28:20;;;;;;;0.20;0.10;;;28.40;47.80;;;;;;5055243;28;20584;-62
2022/09/05 05:30:49;;;;;;;0.60;0.38;;;28.40;47.90;;;;;;5049174;28;20425;-62
2022/09/05 05:33:26;;;;;;;0.17;0.10;;;28.30;47.90;;;;;;5056591;28;20493;-62
2022/09/05 05:35:56;;;;;;;0.20;0.10;;;28.40;48.10;;;;;;5062751;28;20040;-63
2022/09/05 05:38:38;;;;;;;1.20;1.10;;;28.30;48.10;;;;;;5063903;28;20611;-62
2022/09/05 05:41:14;;;;;;;0.40;0.20;;;28.40;48.20;;;;;;5068282;28;20075;-62
2022/09/05 05:43:43;;;;;;;1.58;0.35;;;28.30;48.20;;;;;;5068429;28;20041;-62
2022/09/05 05:46:16;;;;;;;2.50;0.10;;;28.40;48.30;;;;;;5068666;28;20040;-61
2022/09/05 05:48:46;;;;;;;2.05;0.38;;;28.40;48.30;;;;;;5067733;28;20045;-64
2022/09/05 05:51:35;;;;;;;0.25;0.13;;;28.40;48.40;;;;;;5068522;28;20075;-63
2022/09/05 05:54:10;;;;;;;1.58;0.20;;;28.40;48.30;;;;;;5060716;28;20128;-63
2022/09/05 05:56:53;;;;;;;0.90;0.25;;;28.40;48.40;;;;;;5056318;28;20105;-63
2022/09/05 05:59:44;;;;;;;0.17;0.10;;;28.40;48.40;;;;;;5048543;28;20045;-63
2022/09/05 06:03:06;;;;;;;1.20;0.43;;;28.40;48.40;;;;;;5048274;28;20466;-63
2022/09/05 06:05:58;;;;;;;2.15;0.50;;;28.40;48.40;;;;;;4998568;28;20138;-63
2022/09/05 06:08:47;;;;;;;1.13;0.20;;;28.30;48.50;;;;;;5001655;28;20050;-62
2022/09/05 06:11:48;;;;;;;0.38;0.20;;;28.30;48.50;;;;;;4977441;28;20054;-64
2022/09/05 06:14:47;;;;;;;1.27;0.73;;;28.30;48.50;;;;;;5005572;28;20070;-62
2022/09/05 06:17:47;;;;;;;0.40;0.20;;;28.30;48.60;;;;;;4990184;28;20049;-62
2022/09/05 06:20:54;;;;;;;0.63;0.40;;;28.30;48.60;;;;;;4964145;28;20081;-60
2022/09/05 06:23:50;;;;;;;3.45;1.02;;;28.30;48.40;;;;;;4982177;28;20066;-61
2022/09/05 06:26:48;;;;;;;0.50;0.10;;;28.30;48.40;;;;;;4983587;28;20104;-60
2022/09/05 06:29:30;;;;;;;0.57;0.22;;;28.30;48.20;;;;;;4983229;28;20045;-59
2022/09/05 06:32:09;;;;;;;2.83;0.20;;;28.30;48.10;;;;;;4986282;28;20422;-61
2022/09/05 06:35:05;;;;;;;1.05;0.38;;;28.30;48.10;;;;;;5002590;28;20463;-60
2022/09/05 06:37:45;;;;;;;4.07;0.20;;;28.30;47.90;;;;;;4989281;28;20469;-60
2022/09/05 06:40:18;;;;;;;0.20;0.10;;;28.30;47.90;;;;;;5006321;28;20049;-61
2022/09/05 06:43:04;;;;;;;1.35;0.20;;;28.30;47.90;;;;;;5048445;28;20193;-60
2022/09/05 06:45:50;;;;;;;3.03;0.30;;;28.30;47.90;;;;;;5067594;28;20561;-61
2022/09/05 06:48:21;;;;;;;2.30;0.30;;;28.30;47.90;;;;;;5067718;28;20040;-61
2022/09/05 06:51:38;;;;;;;1.20;0.20;;;28.30;47.80;;;;;;5067118;28;20056;-61
2022/09/05 06:54:18;;;;;;;;;;;28.30;47.50;;;;;;5052035;28;20505;-61
2022/09/05 06:57:00;;;;;;;2.35;0.30;;;28.30;47.60;;;;;;5049518;28;19955;-61
2022/09/05 06:59:59;;;;;;;2.10;0.63;;;28.30;47.50;;;;;;5058008;28;20565;-63
2022/09/05 07:02:33;;;;;;;0.50;0.10;;;28.40;47.40;;;;;;5040427;28;20053;-61
2022/09/05 07:05:08;;;;;;;0.82;0.35;;;28.40;47.40;;;;;;5067217;28;20041;-61
2022/09/05 07:07:42;;;;;;;0.68;0.65;;;28.50;47.30;;;;;;5053222;28;20045;-61
2022/09/05 07:10:17;;;;;;;3.67;0.10;;;28.50;47.10;;;;;;5050948;28;20115;-60
2022/09/05 07:12:49;;;;;;;4.80;0.20;;;28.50;46.90;;;;;;5058704;28;20049;-61
2022/09/05 07:15:33;;;;;;;0.20;0.20;;;28.50;46.80;;;;;;5047475;28;20041;-61
2022/09/05 07:18:09;;;;;;;0.40;0.17;;;28.60;47.40;;;;;;5027274;28;20147;-61
2022/09/05 07:20:45;;;;;;;2.53;0.20;;;28.60;46.70;;;;;;5047299;28;20140;-61
2022/09/05 07:23:25;;;;;;;1.33;0.22;;;28.60;46.70;;;;;;5050437;28;20132;-61
2022/09/05 07:25:55;;;;;;;0.40;0.10;;;28.50;46.50;;;;;;5064276;28;20040;-61
2022/09/05 07:28:22;;;;;;;0.35;0.32;;;28.50;46.60;;;;;;5049821;28;20513;-62
2022/09/05 07:30:52;;;;;;;2.17;0.20;;;28.50;46.40;;;;;;5068323;28;20089;-61
2022/09/05 07:33:21;;;;;;;1.65;0.73;;;28.50;46.40;;;;;;5064596;28;20569;-62
2022/09/05 07:35:51;;;;;;;0.10;0.10;;;28.50;46.40;;;;;;5034170;28;20488;-63
2022/09/05 07:38:23;;;;;;;1.77;0.20;;;28.50;46.30;;;;;;5062245;28;20603;-62
2022/09/05 07:40:55;;;;;;;0.45;0.30;;;28.50;46.30;;;;;;5071125;28;20532;-62
2022/09/05 07:43:26;;;;;;;0.20;0.20;;;28.40;46.20;;;;;;5066060;28;20053;-62
2022/09/05 07:46:09;;;;;;;5.88;0.20;;;28.50;46.90;;;;;;5050787;28;20091;-62
2022/09/05 07:48:41;;;;;;;2.38;0.10;;;28.50;46.40;;;;;;5058355;28;20040;-63
2022/09/05 07:51:16;;;;;;;3.00;0.20;;;28.50;46.30;;;;;;5069930;28;20140;-63
2022/09/05 07:53:46;;;;;;;1.15;0.10;;;28.50;46.30;;;;;;5030885;28;20107;-63
2022/09/05 07:56:14;;;;;;;0.47;0.15;;;28.50;46.20;;;;;;5031167;28;20077;-63
2022/09/05 07:58:48;;;;;;;0.57;0.13;;;28.50;46.00;;;;;;5036514;28;20041;-63
2022/09/05 08:01:19;;;;;;;1.70;0.70;;;28.60;46.00;;;;;;5061432;28;20110;-63
2022/09/05 08:03:46;;;;;;;1.85;0.10;;;28.60;45.90;;;;;;5070505;28;20102;-62
2022/09/05 08:06:18;;;;;;;0.65;0.50;;;28.60;45.90;;;;;;5052709;28;20053;-62
2022/09/05 08:08:53;;;;;;;1.17;0.10;;;28.60;46.00;;;;;;5065551;28;20053;-62
2022/09/05 08:11:24;;;;;;;0.20;0.10;;;28.60;45.90;;;;;;5067301;28;20065;-63
2022/09/05 08:13:58;;;;;;;1.83;0.65;;;28.70;45.90;;;;;;5041656;28;20128;-63
2022/09/05 08:16:26;;;;;;;1.55;0.20;;;28.70;45.80;;;;;;5050395;28;20501;-63
2022/09/05 08:19:01;;;;;;;2.55;0.10;;;28.70;45.60;;;;;;5050601;28;20505;-63
2022/09/05 08:21:41;;;;;;;1.77;0.10;;;28.70;45.60;;;;;;5062876;28;20534;-63
2022/09/05 08:24:14;;;;;;;2.03;0.10;;;28.70;45.50;;;;;;5063401;28;20460;-64
2022/09/05 08:26:45;;;;;;;1.38;0.10;;;28.70;45.40;;;;;;5051280;28;20126;-65
2022/09/05 08:29:24;;;;;;;0.50;0.50;;;28.80;45.50;;;;;;5050867;28;20119;-67
2022/09/05 08:31:56;;;;;;;3.38;0.28;;;28.90;45.60;;;;;;5047312;28;20041;-66
2022/09/05 08:34:32;;;;;;;0.20;0.20;;;28.90;45.60;;;;;;5051869;28;20121;-61
2022/09/05 08:37:00;;;;;;;0.77;0.30;;;28.90;45.50;;;;;;5043061;28;20080;-58
2022/09/05 08:39:31;;;;;;;0.77;0.50;;;29.00;45.50;;;;;;5060094;28;20040;-57
2022/09/05 08:42:19;;;;;;;1.33;0.20;;;29.10;45.50;;;;;;5067336;28;20043;-54
2022/09/05 08:45:03;;;;;;;4.70;0.20;;;29.30;45.30;;;;;;5055467;28;20068;-61
2022/09/05 08:47:39;;;;;;;1.20;0.40;;;29.40;45.00;;;;;;5069959;28;20040;-61
2022/09/05 08:50:29;;;;;;;1.88;0.40;;;29.60;44.50;;;;;;5063609;28;20131;-68
2022/09/05 08:53:08;;;;;;;1.40;0.57;;;29.90;44.10;;;;;;5057971;28;20037;-68
2022/09/05 08:55:44;;;;;;;1.48;0.10;;;30.10;43.50;;;;;;5032271;28;20570;-70
2022/09/05 08:58:39;;;;;;;1.13;0.10;;;30.30;43.00;;;;;;5049627;28;20087;-68
2022/09/05 09:01:14;;;;;;;0.77;0.10;;;30.50;42.50;;;;;;5049602;28;20041;-68
2022/09/05 09:04:17;;;;;;;0.75;0.60;;;30.50;42.10;;;;;;5046275;28;20037;-70
2022/09/05 09:07:11;;;;;;;0.20;0.20;;;30.60;41.90;;;;;;4955259;28;20744;-69
2022/09/05 09:09:49;;;;;;;0.93;0.10;;;30.60;41.70;;;;;;4956643;28;20047;-68
2022/09/05 09:12:51;;;;;;;0.68;0.20;;;30.60;41.60;;;;;;4958926;28;21031;-68
2022/09/05 09:15:23;;;;;;;0.60;0.20;;;30.60;41.50;;;;;;4950465;28;20503;-69
2022/09/05 09:17:52;;;;;;;0.32;0.10;;;30.60;41.70;;;;;;4958994;28;20046;-66
2022/09/05 09:20:32;;;;;;;1.70;0.30;;;30.60;41.70;;;;;;4957434;28;20046;-67
2022/09/05 09:23:04;;;;;;;0.30;0.10;;;30.70;41.80;;;;;;4959302;28;20158;-70
2022/09/05 09:25:38;;;;;;;1.63;0.10;;;30.60;41.70;;;;;;4958130;28;20442;-71
2022/09/05 09:28:48;;;;;;;0.10;0.10;;;30.60;41.60;;;;;;4954829;28;20562;-67
2022/09/05 09:31:28;;;;;;;1.27;0.10;;;30.60;41.60;;;;;;4957540;28;20539;-66
2022/09/05 09:34:08;;;;;;;1.60;0.10;;;30.60;41.60;;;;;;4948247;28;20063;-68
2022/09/05 09:36:56;;;;;;;2.92;0.20;;;30.60;41.60;;;;;;4948396;29;20051;-67
2022/09/05 09:39:36;;;;;;;0.52;0.50;;;30.60;41.50;;;;;;4948381;29;20464;-68
2022/09/05 09:42:20;;;;;;;0.28;0.10;;;30.60;41.40;;;;;;4976788;28;20171;-67
2022/09/05 09:45:16;;;;;;;0.20;0.10;;;30.60;41.40;;;;;;5057383;28;20048;-71
2022/09/05 09:48:02;;;;;;;1.00;0.28;;;30.60;41.40;;;;;;5040446;28;20040;-72
2022/09/05 09:50:54;;;;;;;1.58;0.20;;;30.50;41.30;;;;;;5049337;28;20076;-66
2022/09/05 09:53:33;;;;;;;0.10;0.10;;;30.60;41.40;;;;;;5059546;28;20083;-69
2022/09/05 09:56:24;;;;;;;2.03;0.25;;;30.50;41.40;;;;;;5064461;28;20151;-68
2022/09/05 09:59:06;;;;;;;6.07;0.75;;;30.50;41.30;;;;;;5062410;28;20125;-68
2022/09/05 10:01:49;;;;;;;1.33;0.90;;;30.50;41.30;;;;;;5048251;28;20152;-69
2022/09/05 10:04:35;;;;;;;1.65;0.10;;;30.50;41.30;;;;;;5060204;28;20420;-69
2022/09/05 10:07:24;;;;;;;1.02;0.10;;;30.50;41.20;;;;;;5064049;28;20131;-69
2022/09/05 10:10:17;;;;;;;2.47;0.20;;;30.50;41.10;;;;;;5047730;28;20517;-68
2022/09/05 10:13:15;;;;;;;3.10;0.10;;;30.60;41.00;;;;;;5066815;28;20408;-69
2022/09/05 10:16:05;;;;;;;0.10;0.10;;;30.50;40.70;;;;;;5005770;28;20046;-70
2022/09/05 10:18:50;;;;;;;1.40;0.10;;;30.50;40.60;;;;;;4986891;28;20574;-69
2022/09/05 10:21:35;;;;;;;1.70;0.20;;;30.50;40.40;;;;;;5001061;28;20092;-70
2022/09/05 10:24:38;;;;;;;0.30;0.10;;;30.50;40.20;;;;;;5006093;28;20300;-67
2022/09/05 10:27:29;;;;;;;3.72;0.10;;;30.60;40.10;;;;;;4996014;28;20313;-67
2022/09/05 10:30:07;;;;;;;3.30;0.10;;;30.50;39.70;;;;;;4986397;28;20665;-66
2022/09/05 10:32:41;;;;;;;0.13;0.10;;;30.50;39.50;;;;;;4990612;28;20124;-66
2022/09/05 10:35:24;;;;;;;2.00;0.08;;;30.50;39.50;;;;;;5006410;28;20234;-71
2022/09/05 10:38:03;;;;;;;1.73;1.45;;;30.60;39.50;;;;;;4992741;28;20045;-69
2022/09/05 10:40:33;;;;;;;2.05;0.10;;;30.60;39.60;;;;;;4987162;28;20426;-69
2022/09/05 10:43:08;;;;;;;1.00;0.00;;;30.60;39.60;;;;;;5002783;28;20115;-69
2022/09/05 10:45:46;;;;;;;0.50;0.10;;;30.60;39.60;;;;;;4997399;28;20478;-67
2022/09/05 10:48:23;;;;;;;0.68;0.10;;;30.70;39.60;;;;;;4992760;28;20045;-68
2022/09/05 10:50:56;;;;;;;3.20;0.00;;;30.70;39.50;;;;;;5005688;28;20784;-69
2022/09/05 10:53:34;;;;;;;1.60;0.10;;;30.70;39.30;;;;;;5042879;28;20091;-70
2022/09/05 10:56:08;;;;;;;2.97;1.52;;;30.70;39.20;;;;;;5055190;28;20052;-70
2022/09/05 10:58:59;;;;;;;2.75;0.35;;;30.70;39.20;;;;;;5066153;28;20048;-70
2022/09/05 11:01:36;;;;;;;0.30;0.10;;;30.70;39.20;;;;;;5062546;28;20048;-70
2022/09/05 11:04:19;;;;;;;0.70;0.00;;;30.70;39.30;;;;;;5067555;28;20045;-69
2022/09/05 11:06:53;;;;;;;0.85;0.10;;;30.70;39.20;;;;;;5055534;28;20293;-69
2022/09/05 11:09:38;;;;;;;1.45;0.40;;;30.70;39.10;;;;;;5068151;28;20100;-69
2022/09/05 11:12:17;;;;;;;0.00;0.00;;;30.70;39.00;;;;;;5066281;28;20532;-68
2022/09/05 11:14:51;;;;;;;4.75;0.25;;;30.70;39.00;;;;;;5054209;28;20720;-69
2022/09/05 11:17:30;;;;;;;0.40;0.10;;;30.70;38.90;;;;;;5062514;28;20033;-69
2022/09/05 11:20:08;;;;;;;0.55;0.10;;;30.70;38.70;;;;;;5047478;28;20128;-69
2022/09/05 11:22:39;;;;;;;0.10;0.00;;;30.80;38.80;;;;;;5027635;28;20136;-69
2022/09/05 11:25:15;;;;;;;2.63;0.10;;;30.70;38.70;;;;;;5062525;28;20086;-69
2022/09/05 11:27:45;;;;;;;0.57;0.10;;;30.80;38.80;;;;;;5056037;28;20409;-69
2022/09/05 11:30:16;;;;;;;0.90;0.10;;;30.80;38.70;;;;;;5067421;28;20044;-69
2022/09/05 11:33:13;;;;;;;0.63;0.05;;;30.80;38.70;;;;;;5054069;28;20505;-69
2022/09/05 11:35:45;;;;;;;0.15;0.00;;;30.80;38.60;;;;;;5061744;28;20376;-69
2022/09/05 11:38:42;;;;;;;0.73;0.10;;;30.80;38.50;;;;;;5065599;28;20099;-69
2022/09/05 11:41:50;;;;;;;0.10;0.10;;;30.80;38.40;;;;;;5027504;28;20108;-68
2022/09/05 11:44:39;;;;;;;0.47;0.08;;;30.80;38.30;;;;;;5027142;28;20426;-68
2022/09/05 11:47:43;;;;;;;1.23;0.10;;;30.80;38.30;;;;;;4990986;28;20058;-68
2022/09/05 11:51:02;;;;;;;0.43;0.10;;;30.80;38.20;;;;;;4979200;28;20054;-69
2022/09/05 11:54:02;;;;;;;0.00;0.00;;;30.90;38.30;;;;;;4941992;29;20074;-68
2022/09/05 11:57:14;;;;;;;0.08;0.08;;;30.80;38.20;;;;;;4881760;29;20534;-68
2022/09/05 12:00:10;;;;;;;0.32;0.17;;;30.80;38.20;;;;;;4871114;29;20052;-67
2022/09/05 12:02:57;;;;;;;0.10;0.03;;;30.90;38.30;;;;;;4887627;29;20093;-68
2022/09/05 12:05:42;;;;;;;2.17;0.10;;;30.90;38.30;;;;;;4871338;29;20060;-68
2022/09/05 12:08:19;;;;;;;0.10;0.10;;;30.90;38.30;;;;;;4871533;29;20059;-69
2022/09/05 12:11:01;;;;;;;0.47;0.10;;;30.90;38.20;;;;;;4871682;29;20056;-68
2022/09/05 12:13:41;;;;;;;1.15;0.10;;;30.90;38.10;;;;;;4870855;29;20077;-69
2022/09/05 12:16:21;;;;;;;0.35;0.10;;;30.90;38.10;;;;;;4873670;29;20060;-68
2022/09/05 12:19:05;;;;;;;0.00;0.00;;;31.00;38.20;;;;;;4860766;29;20703;-68
2022/09/05 12:21:36;;;;;;;0.20;0.15;;;31.00;38.10;;;;;;4874100;29;20109;-69
2022/09/05 12:24:09;;;;;;;0.32;0.00;;;31.00;38.10;;;;;;4921315;28;20610;-69
2022/09/05 12:26:44;;;;;;;1.00;0.10;;;31.00;38.00;;;;;;4987848;28;20184;-67
2022/09/05 12:29:18;;;;;;;0.00;0.00;;;31.00;37.80;;;;;;4987823;28;20074;-68
2022/09/05 12:31:49;;;;;;;0.98;0.10;;;31.10;37.90;;;;;;5006953;28;20811;-68
2022/09/05 12:34:40;;;;;;;1.33;0.10;;;31.10;37.80;;;;;;5060464;28;20048;-66
2022/09/05 12:37:11;;;;;;;0.88;0.30;;;31.10;37.70;;;;;;5053757;28;20053;-69
2022/09/05 12:39:44;;;;;;;0.00;0.00;;;31.10;37.70;;;;;;5050308;28;20045;-69
2022/09/05 12:42:20;;;;;;;0.28;0.00;;;31.10;37.60;;;;;;5032091;28;20465;-69
2022/09/05 12:45:08;;;;;;;1.75;0.00;;;31.20;37.60;;;;;;5064372;28;20572;-69
2022/09/05 12:47:53;;;;;;;0.10;0.03;;;31.20;37.60;;;;;;5059372;28;20053;-68
2022/09/05 12:50:31;;;;;;;0.10;0.10;;;31.20;38.20;;;;;;5058694;28;20068;-67
2022/09/05 12:53:04;;;;;;;1.38;0.05;;;31.20;37.50;;;;;;5068029;28;20055;-73
2022/09/05 12:55:37;;;;;;;0.32;0.10;;;31.20;37.70;;;;;;5057239;28;20057;-55
2022/09/05 12:58:16;;;;;;;0.22;0.10;;;31.30;37.90;;;;;;5049758;28;20126;-64
2022/09/05 13:00:46;;;;;;;0.10;0.10;;;31.30;37.80;;;;;;5048183;28;20505;-58
2022/09/05 13:03:21;;;;;;;0.90;0.10;;;31.30;37.80;;;;;;5051953;28;20402;-64
2022/09/05 13:05:57;;;;;;;0.40;0.10;;;31.40;37.80;;;;;;5051786;28;20659;-58
2022/09/05 13:08:31;;;;;;;0.90;0.10;;;31.40;37.80;;;;;;5048690;28;20202;-61
2022/09/05 13:11:00;;;;;;;5.32;0.10;;;31.40;37.70;;;;;;5056011;28;20108;-69
2022/09/05 13:13:32;;;;;;;2.53;0.20;;;31.50;37.90;;;;;;5015067;28;20141;-66
2022/09/05 13:16:02;;;;;;;0.32;0.10;;;31.50;38.10;;;;;;5049185;28;20101;-61
2022/09/05 13:18:38;;;;;;;7.38;0.10;;;31.50;38.20;;;;;;5048933;28;20044;-58
2022/09/05 13:21:12;;;;;;;3.05;0.10;;;31.50;38.10;;;;;;5050546;28;20037;-62
2022/09/05 13:23:45;;;;;;;3.88;0.20;;;31.60;38.30;;;;;;5048490;28;20751;-63
2022/09/05 13:26:18;;;;;;;0.98;0.08;;;31.70;38.00;;;;;;5048585;28;20126;-58
2022/09/05 13:28:50;;;;;;;0.28;0.10;;;31.70;37.90;;;;;;5052812;28;20132;-57
2022/09/05 13:32:09;;;;;;;5.18;0.10;;;31.60;37.80;;;;;;5049539;28;20040;-56
2022/09/05 13:34:45;;;;;;;2.80;0.20;;;31.50;37.70;;;;;;4970350;28;20536;-57
2022/09/05 13:37:20;;;;;;;0.90;0.10;;;31.40;37.60;;;;;;4964223;28;20148;-57
2022/09/05 13:39:52;;;;;;;1.15;0.20;;;31.30;37.40;;;;;;4961988;28;20117;-58
2022/09/05 13:42:22;;;;;;;0.52;0.25;;;31.30;37.30;;;;;;4967238;28;20039;-59
2022/09/05 13:44:55;;;;;;;1.52;0.30;;;31.30;37.30;;;;;;4966345;28;20042;-50
2022/09/05 13:47:43;;;;;;;3.45;0.10;;;31.30;37.40;;;;;;4967694;28;20059;-50
2022/09/05 13:50:22;;;;;;;0.30;0.10;;;31.20;37.70;;;;;;4966829;28;20074;-50
2022/09/05 13:52:54;;;;;;;0.10;0.10;;;31.20;37.70;;;;;;4966755;28;20491;-49
2022/09/05 13:55:28;;;;;;;0.10;0.10;;;31.10;37.40;;;;;;4961361;28;20165;-53
2022/09/05 13:58:06;;;;;;;1.38;0.20;;;31.10;37.40;;;;;;4973307;28;20047;-53
2022/09/05 14:01:01;;;;;;;1.27;0.15;;;31.10;37.60;;;;;;4962652;28;20460;-51